Time;durP1;ratioP1;P1;durP2;ratioP2;P2;SDS_P1;SDS_P2;PMS_P1;PMS_P2;Temp;Humidity;BMP_temperature;BMP_pressure;BME280_temperature;BME280_humidity;BME280_pressure;Samples;Min_cycle;Max_cycle;Signal;HPM_P1;HPM_P2
2022/05/27 00:01:51;;;;;;;4.50;2.50;;;12.50;99.90;;;;;;5046210;28;20036;-76
2022/05/27 00:04:17;;;;;;;3.40;2.38;;;12.40;99.90;;;;;;5025114;28;20421;-75
2022/05/27 00:06:42;;;;;;;6.28;2.58;;;12.60;99.90;;;;;;5035988;28;20022;-76
2022/05/27 00:09:08;;;;;;;3.95;3.03;;;12.70;99.90;;;;;;5044449;28;20545;-76
2022/05/27 00:11:34;;;;;;;3.13;2.60;;;12.60;99.90;;;;;;5041071;28;20090;-76
2022/05/27 00:13:59;;;;;;;5.25;2.50;;;12.60;99.90;;;;;;5023159;28;20155;-75
2022/05/27 00:16:27;;;;;;;5.13;2.35;;;12.60;99.90;;;;;;5028196;28;20017;-76
2022/05/27 00:18:52;;;;;;;2.92;2.30;;;12.60;99.90;;;;;;5055073;28;20029;-77
2022/05/27 00:21:18;;;;;;;3.40;2.55;;;12.50;99.90;;;;;;5032075;28;20506;-78
2022/05/27 00:23:44;;;;;;;4.00;2.80;;;12.20;99.90;;;;;;5020918;28;20036;-76
2022/05/27 00:26:09;;;;;;;14.25;3.33;;;12.30;99.90;;;;;;5029157;28;20037;-74
2022/05/27 00:28:35;;;;;;;3.95;2.72;;;12.30;99.90;;;;;;5048448;28;20025;-75
2022/05/27 00:31:00;;;;;;;3.53;2.60;;;12.30;99.90;;;;;;5024116;28;20033;-75
2022/05/27 00:33:26;;;;;;;6.70;2.58;;;12.30;99.90;;;;;;5023687;28;20032;-75
2022/05/27 00:35:51;;;;;;;3.38;2.45;;;12.20;99.90;;;;;;5029554;28;20022;-75
2022/05/27 00:38:18;;;;;;;3.50;2.60;;;12.20;99.90;;;;;;5048321;28;20064;-74
2022/05/27 00:40:49;;;;;;;4.10;2.88;;;12.30;99.90;;;;;;5041600;28;20025;-74
2022/05/27 00:43:15;;;;;;;4.30;2.53;;;12.10;99.90;;;;;;5023545;28;20068;-76
2022/05/27 00:45:44;;;;;;;3.28;2.70;;;12.10;99.90;;;;;;5028709;28;20021;-76
2022/05/27 00:48:17;;;;;;;3.30;2.72;;;12.20;99.90;;;;;;5048182;28;20036;-77
2022/05/27 00:50:45;;;;;;;5.10;2.50;;;12.30;99.90;;;;;;5043727;28;20391;-74
2022/05/27 00:53:13;;;;;;;3.72;2.50;;;12.30;99.90;;;;;;5051455;28;20026;-75
2022/05/27 00:55:46;;;;;;;3.50;2.65;;;12.40;99.90;;;;;;5026649;28;20032;-75
2022/05/27 00:58:26;;;;;;;3.33;2.60;;;12.40;99.90;;;;;;5041334;28;20025;-74
2022/05/27 01:00:52;;;;;;;3.95;2.60;;;12.40;99.90;;;;;;5040872;28;20068;-73
2022/05/27 01:03:18;;;;;;;3.35;2.70;;;12.30;99.90;;;;;;5048083;28;20065;-77
2022/05/27 01:05:45;;;;;;;4.40;2.80;;;12.20;99.90;;;;;;5029696;28;20098;-75
2022/05/27 01:08:13;;;;;;;8.65;2.75;;;12.30;99.90;;;;;;5023107;28;20409;-75
2022/05/27 01:10:52;;;;;;;4.13;2.58;;;12.50;99.90;;;;;;5022404;28;20053;-77
2022/05/27 01:14:14;;;;;;;4.78;2.70;;;12.50;99.90;;;;;;5042630;28;20047;-76
2022/05/27 01:16:57;;;;;;;4.97;2.60;;;12.40;99.90;;;;;;4962788;28;20034;-76
2022/05/27 01:22:43;;;;;;;6.18;3.03;;;12.50;99.90;;;;;;5038031;28;20076;-77
2022/05/27 01:25:39;;;;;;;4.72;2.97;;;12.20;99.90;;;;;;5016579;28;20033;-76
2022/05/27 01:28:21;;;;;;;5.05;2.70;;;12.30;99.90;;;;;;5044471;28;20021;-75
2022/05/27 01:30:56;;;;;;;4.47;2.40;;;12.30;99.90;;;;;;5039713;28;20029;-74
2022/05/27 01:33:46;;;;;;;2.90;2.60;;;12.30;99.90;;;;;;5040415;28;20026;-74
2022/05/27 01:36:39;;;;;;;4.63;2.60;;;12.20;99.90;;;;;;5043905;28;20055;-76
2022/05/27 01:39:27;;;;;;;3.60;2.67;;;12.20;99.90;;;;;;5023045;28;20090;-75
2022/05/27 01:42:14;;;;;;;3.22;2.45;;;12.30;99.90;;;;;;5021634;28;20442;-76
2022/05/27 01:44:43;;;;;;;4.50;2.60;;;12.20;99.90;;;;;;5022909;28;20021;-78
2022/05/27 01:47:15;;;;;;;4.68;2.70;;;12.40;99.90;;;;;;5031999;28;20033;-74
2022/05/27 01:49:48;;;;;;;3.67;2.50;;;12.20;99.90;;;;;;5049275;28;20383;-77
2022/05/27 01:52:26;;;;;;;3.85;2.53;;;12.10;99.90;;;;;;5047340;28;20022;-77
2022/05/27 01:55:05;;;;;;;5.80;2.85;;;11.90;99.90;;;;;;5031668;28;20083;-77
2022/05/27 01:57:41;;;;;;;5.88;2.90;;;12.00;99.90;;;;;;5049620;28;20395;-76
2022/05/27 02:00:20;;;;;;;4.35;2.67;;;11.90;99.90;;;;;;5038888;28;20104;-77
2022/05/27 02:03:12;;;;;;;8.40;3.15;;;11.90;99.90;;;;;;5029025;28;20029;-77
2022/05/27 02:06:01;;;;;;;4.03;2.78;;;11.80;99.90;;;;;;5045883;28;20497;-77
2022/05/27 02:08:53;;;;;;;6.32;2.92;;;12.00;99.90;;;;;;5015654;28;20067;-76
2022/05/27 02:11:21;;;;;;;3.42;2.90;;;12.00;99.90;;;;;;5026738;28;20068;-77
2022/05/27 02:14:16;;;;;;;3.88;2.80;;;12.10;99.90;;;;;;5022442;28;20026;-76
2022/05/27 02:16:54;;;;;;;3.80;3.10;;;12.00;99.90;;;;;;5043458;28;20024;-75
2022/05/27 02:19:49;;;;;;;4.60;2.85;;;12.00;99.90;;;;;;5021841;28;20029;-75
2022/05/27 02:22:21;;;;;;;7.57;2.80;;;12.00;99.90;;;;;;5018860;28;20026;-75
2022/05/27 02:25:01;;;;;;;5.10;2.75;;;12.00;99.90;;;;;;5042742;28;20021;-75
2022/05/27 02:27:34;;;;;;;5.05;3.40;;;11.90;99.90;;;;;;5021751;28;20078;-76
2022/05/27 02:30:08;;;;;;;7.97;3.17;;;12.00;99.90;;;;;;5039320;28;20099;-75
2022/05/27 02:32:42;;;;;;;7.72;3.38;;;12.00;99.90;;;;;;5039448;28;20036;-76
2022/05/27 02:35:22;;;;;;;4.40;2.83;;;11.80;99.90;;;;;;5039042;28;20402;-76
2022/05/27 02:37:53;;;;;;;5.22;2.95;;;11.90;99.90;;;;;;5042082;28;20108;-76
2022/05/27 02:40:28;;;;;;;7.97;2.90;;;11.90;99.90;;;;;;5050026;28;20163;-77
2022/05/27 02:42:59;;;;;;;5.47;3.25;;;11.90;99.90;;;;;;5041717;28;20607;-76
2022/05/27 02:45:49;;;;;;;4.97;2.67;;;11.90;99.90;;;;;;5047712;28;20032;-78
2022/05/27 02:48:42;;;;;;;5.78;3.33;;;11.90;99.90;;;;;;5048225;28;20047;-78
2022/05/27 02:51:36;;;;;;;4.43;3.00;;;12.00;99.90;;;;;;5048789;28;20037;-75
2022/05/27 02:54:31;;;;;;;5.55;2.80;;;12.00;99.90;;;;;;5037493;28;20021;-76
2022/05/27 02:57:04;;;;;;;5.95;3.08;;;12.20;99.90;;;;;;5034034;28;20151;-77
2022/05/27 02:59:31;;;;;;;4.97;3.00;;;12.20;99.90;;;;;;5018795;28;20075;-75
2022/05/27 03:02:10;;;;;;;3.22;2.92;;;12.20;99.90;;;;;;5024773;28;20396;-75
2022/05/27 03:04:42;;;;;;;6.50;3.22;;;12.20;99.90;;;;;;5031504;28;20025;-75
2022/05/27 03:07:26;;;;;;;4.63;3.33;;;12.20;99.90;;;;;;5034112;28;20052;-74
2022/05/27 03:10:04;;;;;;;4.95;2.85;;;12.10;99.90;;;;;;5052357;28;20104;-77
2022/05/27 03:12:49;;;;;;;5.47;3.03;;;12.20;99.90;;;;;;5021107;28;20461;-75
2022/05/27 03:15:40;;;;;;;5.70;3.47;;;11.70;99.90;;;;;;5006510;28;20038;-77
2022/05/27 03:18:29;;;;;;;3.92;3.17;;;11.90;99.90;;;;;;5041055;28;20059;-77
2022/05/27 03:21:05;;;;;;;6.07;3.28;;;12.20;99.90;;;;;;5038329;28;20521;-75
2022/05/27 03:23:39;;;;;;;5.43;3.20;;;12.30;99.90;;;;;;5039173;28;20144;-76
2022/05/27 03:26:20;;;;;;;5.25;3.22;;;12.50;99.90;;;;;;5047428;28;20021;-76
2022/05/27 03:28:58;;;;;;;4.28;2.90;;;12.40;99.90;;;;;;5020644;28;20669;-75
2022/05/27 03:31:57;;;;;;;6.03;2.95;;;12.30;99.90;;;;;;5022955;28;20059;-74
2022/05/27 03:34:39;;;;;;;4.57;3.05;;;12.30;99.90;;;;;;4979704;28;20030;-75
2022/05/27 03:37:14;;;;;;;7.75;3.20;;;12.20;99.90;;;;;;5045133;28;20026;-77
2022/05/27 03:39:51;;;;;;;5.67;3.17;;;12.20;99.90;;;;;;5044081;28;20031;-77
2022/05/27 03:42:19;;;;;;;8.57;3.50;;;12.10;99.90;;;;;;5021589;28;20558;-77
2022/05/27 03:44:55;;;;;;;4.18;3.05;;;12.10;99.90;;;;;;5023878;28;20029;-75
2022/05/27 03:47:20;;;;;;;8.93;3.85;;;12.20;99.90;;;;;;5029194;28;20018;-77
2022/05/27 03:49:46;;;;;;;5.53;2.83;;;12.10;99.90;;;;;;5047800;28;20056;-76
2022/05/27 03:52:20;;;;;;;6.18;3.00;;;12.10;99.90;;;;;;5043680;28;20024;-76
2022/05/27 03:54:45;;;;;;;6.53;3.15;;;12.00;99.90;;;;;;5033438;28;20149;-75
2022/05/27 03:57:11;;;;;;;6.20;3.25;;;12.10;99.90;;;;;;5043391;28;20474;-77
2022/05/27 03:59:36;;;;;;;5.20;3.00;;;12.10;99.90;;;;;;5039888;28;20082;-78
2022/05/27 04:02:02;;;;;;;5.88;3.67;;;12.10;99.90;;;;;;5025488;28;20476;-78
2022/05/27 04:04:28;;;;;;;4.28;3.28;;;12.10;99.90;;;;;;5046673;28;20037;-77
2022/05/27 04:06:54;;;;;;;7.85;3.45;;;12.10;99.90;;;;;;5025087;28;20087;-76
2022/05/27 04:09:22;;;;;;;4.70;3.65;;;12.10;99.90;;;;;;5017979;28;20556;-76
2022/05/27 04:11:48;;;;;;;5.40;3.30;;;12.10;99.90;;;;;;5031219;28;20040;-75
2022/05/27 04:14:14;;;;;;;6.28;3.25;;;12.20;99.90;;;;;;5049330;28;20444;-75
2022/05/27 04:16:39;;;;;;;7.22;3.70;;;12.20;99.90;;;;;;5041834;28;20064;-76
2022/05/27 04:19:05;;;;;;;5.00;3.40;;;12.30;99.90;;;;;;5016714;28;20564;-76
2022/05/27 04:21:32;;;;;;;6.43;3.35;;;12.30;99.90;;;;;;5042268;28;20034;-78
2022/05/27 04:23:58;;;;;;;4.93;3.38;;;12.30;99.90;;;;;;5028974;28;20083;-77
2022/05/27 04:26:24;;;;;;;5.03;3.35;;;12.30;99.90;;;;;;5044276;28;20105;-78
2022/05/27 04:28:49;;;;;;;6.40;3.20;;;12.40;99.90;;;;;;5040336;28;20056;-78
2022/05/27 04:31:15;;;;;;;6.10;3.47;;;12.40;99.90;;;;;;5043404;28;20025;-79
2022/05/27 04:33:40;;;;;;;6.63;3.08;;;12.50;99.90;;;;;;5047515;28;20391;-78
2022/05/27 04:36:07;;;;;;;6.07;3.25;;;12.60;99.90;;;;;;5026252;28;20044;-79
2022/05/27 04:38:33;;;;;;;6.63;3.35;;;12.60;99.90;;;;;;5021883;28;20394;-77
2022/05/27 04:40:58;;;;;;;5.25;3.05;;;12.80;99.90;;;;;;5023099;28;20116;-77
2022/05/27 04:43:24;;;;;;;5.00;3.10;;;13.00;99.90;;;;;;5026703;28;20183;-76
2022/05/27 04:45:50;;;;;;;4.88;2.97;;;13.00;99.90;;;;;;5023353;28;20028;-75
2022/05/27 04:48:18;;;;;;;6.22;2.92;;;12.90;99.90;;;;;;5019887;28;20086;-77
2022/05/27 04:50:43;;;;;;;8.43;3.33;;;12.90;99.90;;;;;;5040335;28;20025;-76
2022/05/27 04:53:10;;;;;;;6.00;3.53;;;13.00;99.90;;;;;;5047230;28;20036;-75
2022/05/27 04:55:37;;;;;;;4.57;2.90;;;13.00;99.90;;;;;;5044232;28;20498;-76
2022/05/27 04:58:03;;;;;;;5.80;3.47;;;13.20;99.90;;;;;;5052087;28;20054;-76
2022/05/27 05:00:32;;;;;;;6.03;3.40;;;13.10;99.90;;;;;;5043765;28;20033;-76
2022/05/27 05:02:58;;;;;;;6.18;3.15;;;13.10;99.90;;;;;;5052610;28;20112;-77
2022/05/27 05:05:29;;;;;;;7.43;4.00;;;13.20;99.90;;;;;;5026493;28;20113;-77
2022/05/27 05:08:17;;;;;;;6.07;3.40;;;13.10;99.90;;;;;;5029100;28;20056;-77
2022/05/27 05:10:43;;;;;;;6.38;3.17;;;13.20;99.90;;;;;;5047268;28;20036;-76
2022/05/27 05:13:08;;;;;;;6.50;3.38;;;13.20;99.90;;;;;;5033841;28;20438;-76
2022/05/27 05:15:34;;;;;;;6.55;3.40;;;13.20;99.90;;;;;;5029380;28;20025;-76
2022/05/27 05:17:59;;;;;;;4.78;3.05;;;13.20;99.90;;;;;;5041791;28;20052;-76
2022/05/27 05:20:28;;;;;;;4.60;3.17;;;13.20;99.90;;;;;;5052824;28;20104;-76
2022/05/27 05:22:53;;;;;;;5.55;3.60;;;13.20;99.90;;;;;;5023864;28;20025;-77
2022/05/27 05:25:19;;;;;;;4.35;2.83;;;13.20;99.90;;;;;;5040473;28;20104;-77
2022/05/27 05:27:45;;;;;;;7.43;3.40;;;13.20;99.90;;;;;;5046471;28;20021;-77
2022/05/27 05:30:15;;;;;;;9.10;3.35;;;13.30;99.90;;;;;;5020026;28;20080;-77
2022/05/27 05:32:41;;;;;;;6.82;3.25;;;13.30;99.90;;;;;;5028135;28;20022;-77
2022/05/27 05:35:08;;;;;;;6.80;3.55;;;13.40;99.90;;;;;;5029518;28;20112;-76
2022/05/27 05:37:33;;;;;;;6.68;3.70;;;13.40;99.90;;;;;;5041873;28;20094;-78
2022/05/27 05:39:59;;;;;;;5.22;3.17;;;13.40;99.90;;;;;;5040847;28;20025;-76
2022/05/27 05:42:25;;;;;;;5.88;3.97;;;13.50;99.90;;;;;;5045033;28;20041;-77
2022/05/27 05:44:50;;;;;;;8.43;3.33;;;13.50;99.90;;;;;;5047207;28;20059;-76
2022/05/27 05:47:16;;;;;;;6.13;2.85;;;13.60;99.90;;;;;;5041761;28;20020;-76
2022/05/27 05:49:41;;;;;;;7.80;3.10;;;13.70;99.90;;;;;;5039974;28;20029;-77
2022/05/27 05:52:07;;;;;;;6.63;3.67;;;13.70;99.90;;;;;;5045356;28;20017;-76
2022/05/27 05:54:33;;;;;;;5.78;3.15;;;13.70;99.90;;;;;;5046904;28;20035;-76
2022/05/27 05:57:01;;;;;;;4.88;3.30;;;13.80;99.90;;;;;;5041029;28;20059;-77
2022/05/27 05:59:32;;;;;;;4.43;2.92;;;13.90;99.90;;;;;;5022300;28;20030;-76
2022/05/27 06:01:58;;;;;;;5.55;3.25;;;13.90;99.90;;;;;;5044358;28;20036;-76
2022/05/27 06:04:24;;;;;;;4.82;3.50;;;14.00;99.90;;;;;;5028833;28;20099;-76
2022/05/27 06:06:50;;;;;;;4.53;3.13;;;14.00;99.90;;;;;;5042109;28;20386;-77
2022/05/27 06:09:17;;;;;;;5.25;3.15;;;14.00;99.90;;;;;;5039944;28;20025;-77
2022/05/27 06:11:42;;;;;;;5.97;2.88;;;14.10;99.90;;;;;;5043666;28;20025;-76
2022/05/27 06:14:08;;;;;;;6.10;3.30;;;14.20;99.90;;;;;;5028642;28;20391;-77
2022/05/27 06:16:34;;;;;;;3.67;3.08;;;14.30;99.90;;;;;;5023860;28;20074;-77
2022/05/27 06:18:59;;;;;;;7.10;3.58;;;14.30;99.90;;;;;;5033399;28;20044;-76
2022/05/27 06:21:26;;;;;;;7.38;3.60;;;14.30;99.90;;;;;;5023721;28;20035;-76
2022/05/27 06:23:52;;;;;;;5.35;3.20;;;14.50;99.90;;;;;;5040747;28;20094;-77
2022/05/27 06:26:18;;;;;;;8.10;3.10;;;14.50;99.90;;;;;;5046016;28;20108;-77
2022/05/27 06:34:24;;;;;;;6.00;3.38;;;15.00;99.90;;;;;;5040608;28;20095;-77
2022/05/27 06:37:04;;;;;;;6.72;3.63;;;14.90;99.90;;;;;;5038817;28;20079;-77
2022/05/27 06:39:32;;;;;;;5.82;3.60;;;15.10;99.90;;;;;;5025195;28;20060;-77
2022/05/27 06:41:58;;;;;;;4.10;3.03;;;15.50;99.90;;;;;;5038592;28;20441;-77
2022/05/27 06:44:24;;;;;;;8.75;3.42;;;15.60;99.90;;;;;;5024079;28;20029;-77
2022/05/27 06:46:52;;;;;;;6.18;3.15;;;15.60;99.90;;;;;;5045888;28;20041;-73
2022/05/27 06:49:21;;;;;;;5.70;3.38;;;15.50;99.90;;;;;;5032344;28;20021;-74
2022/05/27 06:51:47;;;;;;;4.82;3.28;;;15.50;99.90;;;;;;5031761;28;20025;-73
2022/05/27 06:54:15;;;;;;;6.00;3.40;;;15.50;99.90;;;;;;5052244;28;20433;-77
2022/05/27 06:56:42;;;;;;;5.43;3.00;;;15.50;99.90;;;;;;5038879;28;20025;-76
2022/05/27 06:59:08;;;;;;;4.93;3.30;;;15.30;99.90;;;;;;5022327;28;20029;-76
2022/05/27 07:01:35;;;;;;;6.95;3.30;;;15.30;99.90;;;;;;5044981;28;20026;-77
2022/05/27 07:04:01;;;;;;;7.03;3.40;;;15.40;99.90;;;;;;5044373;28;20028;-77
2022/05/27 07:06:31;;;;;;;4.68;2.90;;;15.40;99.90;;;;;;5020983;28;20025;-77
2022/05/27 07:08:57;;;;;;;5.30;2.58;;;15.50;99.90;;;;;;5021604;28;20021;-77
2022/05/27 07:11:23;;;;;;;7.00;2.63;;;15.50;99.90;;;;;;5032797;28;20035;-77
2022/05/27 07:13:48;;;;;;;6.05;2.95;;;15.50;99.90;;;;;;5039752;28;20065;-77
2022/05/27 07:16:14;;;;;;;5.13;2.70;;;15.50;99.90;;;;;;5045178;28;20036;-76
2022/05/27 07:18:40;;;;;;;7.85;2.60;;;15.60;99.90;;;;;;5026998;28;20028;-76
2022/05/27 07:21:06;;;;;;;3.20;2.55;;;15.70;99.90;;;;;;5044809;28;20021;-77
2022/05/27 07:23:33;;;;;;;4.68;3.20;;;15.80;99.90;;;;;;5047941;28;20665;-77
2022/05/27 07:25:59;;;;;;;4.65;2.70;;;15.80;99.90;;;;;;5021083;28;20390;-77
2022/05/27 07:28:25;;;;;;;4.80;2.80;;;15.70;99.90;;;;;;5038629;28;20037;-76
2022/05/27 07:30:51;;;;;;;6.55;2.65;;;15.60;99.90;;;;;;5037812;28;20029;-76
2022/05/27 07:33:17;;;;;;;5.45;2.95;;;15.50;99.90;;;;;;5038663;28;20024;-77
2022/05/27 07:35:42;;;;;;;7.20;3.00;;;15.60;99.90;;;;;;5045181;28;20083;-77
2022/05/27 07:38:08;;;;;;;6.82;2.75;;;15.60;99.90;;;;;;5044994;28;20230;-77
2022/05/27 07:40:34;;;;;;;6.32;2.88;;;15.60;99.90;;;;;;5038233;28;20060;-77
2022/05/27 07:42:59;;;;;;;5.32;2.83;;;15.50;99.90;;;;;;5020653;28;20082;-77
2022/05/27 07:45:29;;;;;;;4.75;2.80;;;15.40;99.90;;;;;;5027099;28;20025;-76
2022/05/27 07:47:55;;;;;;;4.45;2.88;;;15.30;99.90;;;;;;5028018;28;20017;-77
2022/05/27 07:50:22;;;;;;;4.78;2.72;;;15.30;99.90;;;;;;5039699;28;20032;-76
2022/05/27 07:52:48;;;;;;;6.65;3.10;;;15.40;99.90;;;;;;5020484;28;20032;-77
2022/05/27 07:55:14;;;;;;;6.13;2.88;;;15.30;99.90;;;;;;5026966;28;20187;-76
2022/05/27 07:57:44;;;;;;;7.90;3.58;;;15.30;99.90;;;;;;5045114;28;20072;-77
2022/05/27 08:00:23;;;;;;;4.85;3.28;;;15.30;99.90;;;;;;5020898;28;20025;-78
2022/05/27 08:02:49;;;;;;;5.55;3.10;;;15.20;99.90;;;;;;5020196;28;20037;-77
2022/05/27 08:05:18;;;;;;;6.68;3.47;;;15.20;99.90;;;;;;5024690;28;20475;-77
2022/05/27 08:07:43;;;;;;;5.70;3.03;;;15.20;99.90;;;;;;5026933;28;20024;-77
2022/05/27 08:10:11;;;;;;;5.88;3.05;;;15.20;99.90;;;;;;5040378;28;20103;-77
2022/05/27 08:12:37;;;;;;;6.00;3.30;;;15.20;99.90;;;;;;5037744;28;20025;-76
2022/05/27 08:15:04;;;;;;;5.97;3.45;;;15.10;99.90;;;;;;5041954;28;20108;-77
2022/05/27 08:17:29;;;;;;;4.97;3.08;;;15.20;99.90;;;;;;5026558;28;20025;-77
2022/05/27 08:19:55;;;;;;;5.68;3.70;;;15.20;99.90;;;;;;5041044;28;20021;-77
2022/05/27 08:22:21;;;;;;;9.52;3.90;;;15.20;99.90;;;;;;5037230;28;20099;-77
2022/05/27 08:24:46;;;;;;;4.85;3.72;;;15.20;99.90;;;;;;5041652;28;20091;-77
2022/05/27 08:27:12;;;;;;;5.05;3.40;;;15.20;99.90;;;;;;5026886;28;20112;-77
2022/05/27 08:29:38;;;;;;;5.53;3.63;;;15.10;99.90;;;;;;5024801;28;20021;-77
2022/05/27 08:32:04;;;;;;;8.50;3.70;;;15.00;99.90;;;;;;5040894;28;20391;-77
2022/05/27 08:40:01;;;;;;;6.68;4.10;;;15.00;99.90;;;;;;5048574;28;20071;-77
2022/05/27 08:42:54;;;;;;;7.70;4.18;;;15.00;99.90;;;;;;5042121;28;20028;-78
2022/05/27 08:45:32;;;;;;;7.30;3.85;;;15.00;99.90;;;;;;5023684;28;20028;-77
2022/05/27 08:48:01;;;;;;;7.55;4.25;;;15.00;99.90;;;;;;5023798;28;20056;-77
2022/05/27 08:50:49;;;;;;;5.65;3.67;;;15.00;99.90;;;;;;5023465;28;20096;-76
2022/05/27 08:53:38;;;;;;;6.90;4.20;;;15.00;99.90;;;;;;5041006;28;20125;-76
2022/05/27 08:59:28;;;;;;;8.80;4.47;;;15.10;99.90;;;;;;5044908;28;20493;-76
2022/05/27 09:02:18;;;;;;;5.80;3.92;;;15.00;99.90;;;;;;5052725;28;20024;-77
2022/05/27 09:04:47;;;;;;;5.15;3.92;;;14.90;99.90;;;;;;5049185;28;20033;-77
2022/05/27 09:07:40;;;;;;;5.80;3.90;;;14.90;99.90;;;;;;5045770;28;20052;-76
2022/05/27 09:10:29;;;;;;;10.25;4.25;;;14.90;99.90;;;;;;5027039;28;20079;-77
2022/05/27 09:13:22;;;;;;;6.60;3.88;;;15.00;99.90;;;;;;5005992;28;20033;-76
2022/05/27 09:15:59;;;;;;;9.35;4.82;;;14.90;99.90;;;;;;5040632;28;20100;-76
2022/05/27 09:18:29;;;;;;;8.73;3.92;;;14.90;99.90;;;;;;5054256;28;20478;-76
2022/05/27 09:20:57;;;;;;;6.28;3.97;;;15.00;99.90;;;;;;5022160;28;20020;-77
2022/05/27 09:23:44;;;;;;;4.95;3.97;;;15.00;99.90;;;;;;5024603;28;20021;-76
2022/05/27 09:26:24;;;;;;;5.60;3.88;;;15.00;99.90;;;;;;5053522;28;20021;-76
2022/05/27 09:29:20;;;;;;;7.45;3.95;;;15.00;99.90;;;;;;5040918;28;20021;-78
2022/05/27 09:31:55;;;;;;;7.32;3.95;;;15.10;99.90;;;;;;5008686;28;20026;-77
2022/05/27 09:34:25;;;;;;;5.53;3.92;;;15.00;99.90;;;;;;5045551;28;20022;-76
2022/05/27 09:36:54;;;;;;;7.13;4.00;;;14.90;99.90;;;;;;5047429;28;20029;-77
2022/05/27 09:39:21;;;;;;;5.68;3.70;;;14.90;99.90;;;;;;5025120;28;20032;-76
2022/05/27 09:42:06;;;;;;;6.38;4.60;;;15.00;99.90;;;;;;5032364;28;20158;-77
2022/05/27 09:44:54;;;;;;;6.57;4.25;;;15.10;99.90;;;;;;5027797;28;20171;-77
2022/05/27 09:47:21;;;;;;;5.90;4.30;;;15.10;99.90;;;;;;5042083;28;20029;-78
2022/05/27 09:49:56;;;;;;;5.82;4.10;;;15.10;99.90;;;;;;5022428;28;20603;-76
2022/05/27 09:52:24;;;;;;;7.28;4.38;;;15.10;99.90;;;;;;5025373;28;20084;-77
2022/05/27 09:54:55;;;;;;;5.78;4.50;;;15.10;99.90;;;;;;5028986;28;20079;-77
2022/05/27 09:57:26;;;;;;;5.75;3.80;;;15.20;99.90;;;;;;5044390;28;20052;-76
2022/05/27 10:00:04;;;;;;;5.80;3.75;;;15.30;99.90;;;;;;5039324;28;20028;-76
2022/05/27 10:02:34;;;;;;;5.55;4.07;;;15.30;99.90;;;;;;5047203;28;20024;-78
2022/05/27 10:05:25;;;;;;;6.95;3.97;;;15.20;99.90;;;;;;5029618;28;20031;-76
2022/05/27 10:07:54;;;;;;;7.70;4.35;;;15.20;99.90;;;;;;5038326;28;20024;-77
2022/05/27 10:10:34;;;;;;;7.30;4.20;;;15.10;99.90;;;;;;5037344;28;20021;-77
2022/05/27 10:13:30;;;;;;;5.43;3.78;;;15.10;99.90;;;;;;5029120;28;20025;-76
2022/05/27 10:16:10;;;;;;;4.97;3.80;;;15.30;99.90;;;;;;5038525;28;20394;-77
2022/05/27 10:18:37;;;;;;;6.57;3.47;;;15.30;99.90;;;;;;5026858;28;20048;-77
2022/05/27 10:21:19;;;;;;;5.03;4.00;;;15.40;99.90;;;;;;5045203;28;20096;-77
2022/05/27 10:23:48;;;;;;;4.32;2.88;;;15.50;99.90;;;;;;5023691;28;20025;-77
2022/05/27 10:26:29;;;;;;;5.22;3.40;;;15.60;99.90;;;;;;5039177;28;20387;-78
2022/05/27 10:29:02;;;;;;;7.10;3.72;;;15.60;99.90;;;;;;5047242;28;20013;-76
2022/05/27 10:31:28;;;;;;;5.15;3.40;;;15.50;99.90;;;;;;5043503;28;20021;-77
2022/05/27 10:33:53;;;;;;;4.53;4.00;;;15.60;99.90;;;;;;5039597;28;20025;-79
2022/05/27 10:36:46;;;;;;;5.68;3.80;;;15.60;99.90;;;;;;5036871;28;20028;-77
2022/05/27 10:39:26;;;;;;;6.78;3.42;;;15.50;99.90;;;;;;5022053;28;20386;-77
2022/05/27 10:42:10;;;;;;;4.93;3.60;;;15.90;99.90;;;;;;5040031;28;20025;-78
2022/05/27 10:44:42;;;;;;;5.03;3.80;;;16.00;99.90;;;;;;5026847;28;20041;-76
2022/05/27 10:47:30;;;;;;;7.20;4.20;;;15.90;99.90;;;;;;5023375;28;20021;-76
2022/05/27 10:50:10;;;;;;;5.20;3.88;;;15.50;99.90;;;;;;5038143;28;20494;-76
2022/05/27 10:52:42;;;;;;;6.57;4.22;;;15.60;99.90;;;;;;5031202;28;20025;-78
2022/05/27 10:55:28;;;;;;;8.55;4.50;;;15.60;99.90;;;;;;5047935;28;20040;-76
2022/05/27 11:04:01;;;;;;;6.20;5.35;;;15.20;99.90;;;;;;5045481;28;20539;-76
2022/05/27 11:06:50;;;;;;;9.20;5.65;;;15.30;99.90;;;;;;5045612;28;20058;-77
2022/05/27 11:09:41;;;;;;;8.18;5.55;;;15.30;99.90;;;;;;5027688;28;20081;-76
2022/05/27 11:15:37;;;;;;;6.45;4.78;;;15.30;99.90;;;;;;5044436;28;20110;-77
2022/05/27 11:18:25;;;;;;;7.90;4.93;;;15.30;99.90;;;;;;5039590;28;20025;-77
2022/05/27 11:21:19;;;;;;;7.78;4.88;;;15.70;99.90;;;;;;5047082;28;20039;-76
2022/05/27 11:23:53;;;;;;;7.20;5.40;;;15.70;99.90;;;;;;5045131;28;20104;-77
2022/05/27 11:26:32;;;;;;;8.38;5.35;;;15.80;99.90;;;;;;5049415;28;20028;-77
2022/05/27 11:29:05;;;;;;;8.90;5.30;;;16.00;99.90;;;;;;5020374;28;20021;-76
2022/05/27 11:31:42;;;;;;;7.57;4.85;;;16.00;99.90;;;;;;5051224;28;20110;-76
2022/05/27 11:34:14;;;;;;;6.10;5.05;;;16.00;99.90;;;;;;5038634;28;20032;-77
2022/05/27 11:37:06;;;;;;;7.03;5.13;;;16.00;99.90;;;;;;5032541;28;20037;-78
2022/05/27 11:39:47;;;;;;;7.47;5.10;;;15.80;99.90;;;;;;5032996;28;20128;-77
2022/05/27 11:42:41;;;;;;;5.82;4.65;;;15.60;99.90;;;;;;5033034;28;20604;-77
2022/05/27 11:45:21;;;;;;;6.65;4.70;;;15.60;99.90;;;;;;5045134;28;20036;-77
2022/05/27 11:48:06;;;;;;;5.22;4.53;;;15.50;99.90;;;;;;5043248;28;20017;-77
2022/05/27 11:50:47;;;;;;;5.72;4.63;;;15.50;99.90;;;;;;5039779;28;20025;-77
2022/05/27 11:53:31;;;;;;;6.00;4.13;;;15.50;99.90;;;;;;5044667;28;20402;-77
2022/05/27 11:56:16;;;;;;;6.65;4.00;;;15.70;99.90;;;;;;5038450;28;20022;-76
2022/05/27 11:58:56;;;;;;;5.25;3.90;;;15.70;99.90;;;;;;5022937;28;20025;-77
2022/05/27 12:01:46;;;;;;;4.15;3.67;;;15.70;99.90;;;;;;5019624;28;20025;-78
2022/05/27 12:04:30;;;;;;;10.20;3.92;;;15.80;99.90;;;;;;5023501;28;20407;-77
2022/05/27 12:07:17;;;;;;;6.72;3.88;;;15.90;99.90;;;;;;5045571;28;20053;-77
2022/05/27 12:10:00;;;;;;;4.85;3.85;;;16.00;99.90;;;;;;5049074;28;20025;-77
2022/05/27 12:12:31;;;;;;;5.88;4.00;;;16.10;99.90;;;;;;5048208;28;20103;-77
2022/05/27 12:15:05;;;;;;;4.15;3.78;;;16.00;99.90;;;;;;5044509;28;20029;-77
2022/05/27 12:17:40;;;;;;;5.13;3.47;;;16.30;99.90;;;;;;5024746;28;20082;-76
2022/05/27 12:20:07;;;;;;;4.30;3.75;;;17.10;99.90;;;;;;5045351;28;20021;-77
2022/05/27 12:22:33;;;;;;;5.28;3.20;;;17.30;99.90;;;;;;5031622;28;20448;-77
2022/05/27 12:25:07;;;;;;;4.00;3.50;;;16.90;99.90;;;;;;5035984;28;20060;-76
2022/05/27 12:27:35;;;;;;;6.47;3.90;;;17.00;99.90;;;;;;5024565;28;20056;-76
2022/05/27 12:30:05;;;;;;;4.15;3.22;;;17.70;99.90;;;;;;5043509;28;20289;-76
2022/05/27 12:32:31;;;;;;;3.53;3.20;;;18.00;99.90;;;;;;5049243;28;20029;-76
2022/05/27 12:35:33;;;;;;;3.55;3.10;;;17.70;99.90;;;;;;5030472;28;20030;-76
2022/05/27 12:38:25;;;;;;;5.65;3.42;;;18.10;99.90;;;;;;5028627;28;20040;-78
2022/05/27 12:41:00;;;;;;;4.82;3.03;;;18.30;99.90;;;;;;5046162;28;20021;-78
2022/05/27 12:43:39;;;;;;;3.53;2.70;;;18.30;99.90;;;;;;5030458;28;20163;-77
2022/05/27 12:46:05;;;;;;;3.80;3.40;;;17.80;99.90;;;;;;5045936;28;20180;-77
2022/05/27 12:48:50;;;;;;;3.88;3.28;;;17.70;99.90;;;;;;5041241;28;20113;-76
2022/05/27 12:51:16;;;;;;;3.90;3.30;;;17.80;99.90;;;;;;5022603;28;20037;-77
2022/05/27 12:53:53;;;;;;;4.13;3.10;;;18.60;99.90;;;;;;5048423;28;20026;-76
2022/05/27 13:02:21;;;;;;;5.00;3.47;;;17.40;99.90;;;;;;5046229;28;20060;-76
2022/05/27 13:04:54;;;;;;;4.00;3.55;;;17.20;99.90;;;;;;5043568;28;20025;-77
2022/05/27 13:07:44;;;;;;;7.25;4.30;;;17.10;99.90;;;;;;5041825;28;20026;-77
2022/05/27 13:10:15;;;;;;;5.88;3.67;;;17.20;99.90;;;;;;5043118;28;20086;-77
2022/05/27 13:12:47;;;;;;;7.53;3.95;;;17.50;99.90;;;;;;5023063;28;20025;-77
2022/05/27 13:15:55;;;;;;;6.78;4.03;;;17.40;99.90;;;;;;5042714;28;20521;-77
2022/05/27 13:18:23;;;;;;;4.05;3.65;;;17.60;99.90;;;;;;5032268;28;20117;-77
2022/05/27 13:21:01;;;;;;;4.30;3.40;;;17.40;99.90;;;;;;5037493;28;20031;-76
2022/05/27 13:23:30;;;;;;;5.13;3.58;;;17.60;99.90;;;;;;5041447;28;20034;-77
2022/05/27 13:26:13;;;;;;;4.18;3.78;;;17.60;99.90;;;;;;5047396;28;20087;-77
2022/05/27 13:28:51;;;;;;;5.28;3.75;;;17.20;99.90;;;;;;5018349;28;20510;-76
2022/05/27 13:31:24;;;;;;;4.82;3.72;;;16.90;99.90;;;;;;5046115;28;20029;-77
2022/05/27 13:34:03;;;;;;;2.53;2.13;;;16.60;99.90;;;;;;5056311;28;20548;-77
2022/05/27 13:36:53;;;;;;;2.55;1.90;;;16.50;99.90;;;;;;5027087;28;20033;-77
2022/05/27 13:39:26;;;;;;;2.13;1.40;;;15.50;99.90;;;;;;5022271;28;20033;-76
2022/05/27 13:41:53;;;;;;;2.72;1.20;;;14.50;99.90;;;;;;5028962;28;20025;-77
2022/05/27 13:44:21;;;;;;;1.65;1.05;;;14.20;99.90;;;;;;5045318;28;20032;-76
2022/05/27 13:46:56;;;;;;;4.65;1.42;;;14.00;99.90;;;;;;5040689;28;20020;-77
2022/05/27 13:49:36;;;;;;;3.15;1.80;;;13.90;99.90;;;;;;5054010;28;20021;-76
2022/05/27 13:52:15;;;;;;;3.03;1.83;;;13.80;99.90;;;;;;5033410;28;20029;-77